GBE weather

Sir Seretse Khama International Airport
Gaborone, South-East District, Botswana

Public forecast

Using degrees Celsius for public forecast. Weather courtesy of forecast.io.

METAR (pilot weather report)

Retrieved 2019/05/19 22:00 UTC (5 minutes ago):

FBSK 192200Z VRB01KT CAVOK 14/05 Q1023 NOSIG

TAF (pilot weather forecast)

Retrieved 2019/05/19 18:03 UTC (4 hours ago):

TAF TAF FBSK 191600Z 1918/2024 03008KT CAVOK